createdAt,value
2023-02-17T00:01:33.257Z,13.53
2023-02-17T00:04:00.462Z,13.56
2023-02-17T00:06:28.815Z,13.73
2023-02-17T00:08:55.976Z,13.52
2023-02-17T00:11:22.665Z,13.37
2023-02-17T00:13:49.341Z,13.53
2023-02-17T00:16:22.335Z,13.54
2023-02-17T00:18:53.924Z,13.45
2023-02-17T00:21:22.516Z,13.55
2023-02-17T00:23:49.986Z,13.46
2023-02-17T00:26:18.077Z,13.66
2023-02-17T00:28:45.995Z,13.62
2023-02-17T00:31:21.037Z,13.38
2023-02-17T00:33:48.905Z,13.55
2023-02-17T00:36:18.794Z,13.26
2023-02-17T00:38:47.875Z,13.47
2023-02-17T00:41:15.437Z,13.52
2023-02-17T00:43:42.086Z,13.24
2023-02-17T00:46:09.200Z,13.40
2023-02-17T00:48:36.126Z,13.51
2023-02-17T00:51:03.245Z,13.45
2023-02-17T00:53:30.098Z,13.26
2023-02-17T00:55:57.017Z,13.35
2023-02-17T00:58:23.936Z,13.34
2023-02-17T01:00:51.278Z,13.26
2023-02-17T01:03:19.109Z,13.24
2023-02-17T01:05:47.473Z,13.30
2023-02-17T01:08:15.440Z,13.42
2023-02-17T01:10:44.121Z,13.34
2023-02-17T01:13:12.377Z,13.56
2023-02-17T01:15:44.269Z,13.67
2023-02-17T01:18:14.411Z,13.65
2023-02-17T01:20:45.435Z,13.51
2023-02-17T01:23:13.165Z,13.59
2023-02-17T01:25:42.839Z,13.45
2023-02-17T01:28:15.186Z,13.52
2023-02-17T01:30:41.885Z,13.72
2023-02-17T01:33:08.804Z,13.58
2023-02-17T01:35:35.551Z,13.35
2023-02-17T01:38:02.294Z,13.36
2023-02-17T01:40:30.328Z,13.45
2023-02-17T01:42:57.257Z,13.47
2023-02-17T01:45:23.842Z,13.64
2023-02-17T01:48:02.707Z,13.57
2023-02-17T01:50:37.313Z,13.54
2023-02-17T01:53:09.256Z,13.75
2023-02-17T01:55:38.198Z,13.73
2023-02-17T01:58:08.826Z,13.68
2023-02-17T02:00:36.706Z,13.90
2023-02-17T02:03:08.910Z,13.66
2023-02-17T02:05:37.612Z,13.45
2023-02-17T02:08:05.317Z,13.71
2023-02-17T02:10:33.287Z,13.54
2023-02-17T02:12:59.994Z,13.81
2023-02-17T02:15:34.285Z,13.62
2023-02-17T02:18:20.792Z,13.55
2023-02-17T02:21:26.141Z,13.75
2023-02-17T02:24:11.643Z,13.98
2023-02-17T02:26:57.026Z,13.80
2023-02-17T02:30:00.653Z,13.75
2023-02-17T02:32:50.885Z,13.82
2023-02-17T02:35:25.557Z,13.89
2023-02-17T02:38:01.575Z,13.70
2023-02-17T02:40:33.305Z,13.66
2023-02-17T02:43:02.418Z,13.75
2023-02-17T02:45:29.513Z,13.75
2023-02-17T02:47:57.795Z,13.91
2023-02-17T02:50:45.172Z,14.07
2023-02-17T02:53:23.700Z,13.66
2023-02-17T02:55:59.294Z,13.65
2023-02-17T02:58:47.205Z,13.98
2023-02-17T03:01:28.974Z,13.83
2023-02-17T03:04:37.526Z,13.87
2023-02-17T03:07:21.157Z,13.95
2023-02-17T03:09:53.553Z,14.01
2023-02-17T03:12:22.251Z,14.14
2023-02-17T03:14:54.711Z,13.99
2023-02-17T03:17:22.730Z,13.98
2023-02-17T03:19:50.504Z,14.06
2023-02-17T03:22:30.881Z,14.04
2023-02-17T03:25:00.115Z,14.07
2023-02-17T03:27:27.906Z,14.02
2023-02-17T03:29:55.263Z,14.13
2023-02-17T03:32:22.323Z,14.25
2023-02-17T03:34:49.008Z,14.00
2023-02-17T03:37:15.634Z,14.20
2023-02-17T03:39:42.388Z,14.13
2023-02-17T03:42:09.140Z,13.98
2023-02-17T03:44:35.919Z,13.90
2023-02-17T03:47:02.620Z,14.10
2023-02-17T03:49:29.374Z,14.07
2023-02-17T03:51:56.009Z,14.16
2023-02-17T03:54:22.630Z,14.11
2023-02-17T03:56:49.352Z,14.23
2023-02-17T03:59:16.034Z,14.26
2023-02-17T04:01:42.782Z,14.30
2023-02-17T04:04:09.710Z,14.30
2023-02-17T04:06:37.106Z,14.12
2023-02-17T04:09:04.303Z,14.10
2023-02-17T04:11:31.007Z,14.26
2023-02-17T04:13:57.621Z,14.28
2023-02-17T04:16:24.296Z,14.28
2023-02-17T04:18:50.924Z,14.39
2023-02-17T04:21:17.590Z,14.24
2023-02-17T04:23:44.552Z,14.13
2023-02-17T04:26:11.457Z,14.27
2023-02-17T04:28:39.806Z,14.23
2023-02-17T04:31:06.787Z,14.16
2023-02-17T04:33:34.101Z,14.11
2023-02-17T04:36:00.862Z,14.30
2023-02-17T04:38:29.253Z,14.12
2023-02-17T04:40:57.475Z,14.35
2023-02-17T04:43:25.887Z,14.25
2023-02-17T04:45:53.014Z,14.39
2023-02-17T04:48:20.534Z,14.20
2023-02-17T04:50:47.252Z,14.09
2023-02-17T04:53:15.298Z,14.14
2023-02-17T04:55:42.308Z,14.28
2023-02-17T04:58:09.274Z,14.35
2023-02-17T05:00:36.961Z,14.40
2023-02-17T05:03:03.912Z,14.47
2023-02-17T05:05:31.055Z,14.43
2023-02-17T05:07:57.945Z,14.15
2023-02-17T05:10:24.878Z,13.98
2023-02-17T05:12:52.318Z,14.30
2023-02-17T05:15:19.275Z,14.25
2023-02-17T05:17:46.162Z,14.29
2023-02-17T05:20:13.132Z,14.46
2023-02-17T05:22:39.889Z,14.28
2023-02-17T05:25:07.114Z,14.44
2023-02-17T05:27:34.525Z,14.20
2023-02-17T05:30:01.536Z,14.33
2023-02-17T05:32:28.212Z,14.48
2023-02-17T05:34:54.935Z,14.29
2023-02-17T05:37:21.684Z,14.20
2023-02-17T05:39:48.372Z,14.35
2023-02-17T05:42:15.034Z,14.57
2023-02-17T05:44:41.691Z,14.34
2023-02-17T05:47:08.447Z,14.08
2023-02-17T05:49:35.206Z,13.75
2023-02-17T05:52:02.844Z,13.80
2023-02-17T05:54:29.532Z,13.47
2023-02-17T05:56:56.273Z,13.78
2023-02-17T05:59:23.096Z,13.80
2023-02-17T06:01:49.798Z,13.88
2023-02-17T06:04:16.520Z,13.76
2023-02-17T06:06:43.239Z,13.88
2023-02-17T06:09:09.949Z,13.79
2023-02-17T06:11:37.131Z,13.87
2023-02-17T06:14:04.155Z,14.01
2023-02-17T06:16:30.884Z,13.95
2023-02-17T06:19:00.084Z,13.84
2023-02-17T06:21:26.760Z,13.89
2023-02-17T06:23:53.445Z,13.72
2023-02-17T06:26:20.311Z,13.82
2023-02-17T06:28:47.086Z,13.87
2023-02-17T06:31:13.844Z,13.66
2023-02-17T06:33:40.588Z,13.69
2023-02-17T06:36:08.439Z,13.66
2023-02-17T06:38:35.269Z,13.71
2023-02-17T06:41:02.124Z,13.80
2023-02-17T06:43:28.857Z,13.76
2023-02-17T06:45:55.578Z,13.85
2023-02-17T06:48:22.268Z,13.54
2023-02-17T06:50:49.755Z,13.53
2023-02-17T06:53:16.448Z,13.76
2023-02-17T06:55:44.545Z,13.67
2023-02-17T06:58:11.233Z,13.70
2023-02-17T07:00:37.943Z,13.81
2023-02-17T07:03:04.835Z,13.61
2023-02-17T07:05:31.557Z,13.74
2023-02-17T07:07:58.774Z,13.36
2023-02-17T07:10:25.793Z,13.61
2023-02-17T07:12:52.532Z,13.51
2023-02-17T07:15:19.337Z,13.17
2023-02-17T07:17:46.024Z,13.00
2023-02-17T07:20:13.332Z,13.18
2023-02-17T07:22:40.411Z,13.60
2023-02-17T07:25:07.678Z,13.67
2023-02-17T07:27:37.384Z,13.59
2023-02-17T07:30:05.119Z,13.55
2023-02-17T07:32:32.219Z,13.43
2023-02-17T07:34:58.875Z,13.61
2023-02-17T07:37:25.531Z,13.66
2023-02-17T07:39:52.439Z,13.68
2023-02-17T07:42:19.140Z,13.08
2023-02-17T07:44:46.941Z,13.35
2023-02-17T07:47:13.644Z,13.61
2023-02-17T07:49:40.409Z,13.64
2023-02-17T07:52:07.079Z,13.70
2023-02-17T07:54:33.779Z,13.50
2023-02-17T07:57:00.697Z,13.90
2023-02-17T07:59:27.411Z,13.90
2023-02-17T08:01:54.056Z,13.75
2023-02-17T08:04:20.836Z,13.81
2023-02-17T08:06:47.506Z,13.60
2023-02-17T08:09:32.774Z,13.70
2023-02-17T08:12:18.004Z,13.46
2023-02-17T08:14:44.780Z,13.63
2023-02-17T08:17:11.507Z,13.54
2023-02-17T08:19:53.546Z,13.18
2023-02-17T08:22:20.499Z,13.63
2023-02-17T08:24:47.337Z,13.29
2023-02-17T08:27:15.235Z,13.20
2023-02-17T08:29:42.382Z,13.41
2023-02-17T08:32:09.826Z,13.56
2023-02-17T08:34:37.397Z,13.57
2023-02-17T08:37:05.938Z,13.50
2023-02-17T08:39:34.006Z,13.57
2023-02-17T08:42:01.551Z,13.78
2023-02-17T08:44:28.364Z,13.73
2023-02-17T08:46:55.592Z,13.59
2023-02-17T08:49:24.919Z,13.22
2023-02-17T08:51:52.243Z,13.43
2023-02-17T08:54:19.366Z,13.27
2023-02-17T08:56:46.325Z,13.33
2023-02-17T08:59:15.498Z,13.55
2023-02-17T09:01:42.781Z,13.18
2023-02-17T09:04:11.937Z,13.18
2023-02-17T09:06:47.300Z,13.58
2023-02-17T09:09:16.732Z,13.61
2023-02-17T09:11:44.580Z,13.58
2023-02-17T09:14:11.338Z,13.40
2023-02-17T09:16:40.407Z,13.36
2023-02-17T09:19:08.096Z,12.97
2023-02-17T09:21:34.758Z,13.07
2023-02-17T09:24:01.460Z,13.20
2023-02-17T09:26:28.138Z,13.26
2023-02-17T09:28:54.817Z,13.21
2023-02-17T09:31:24.670Z,13.27
2023-02-17T09:33:52.373Z,13.47
2023-02-17T09:36:26.538Z,13.30
2023-02-17T09:38:53.722Z,13.03
2023-02-17T09:41:23.155Z,13.45
2023-02-17T09:43:54.476Z,13.45
2023-02-17T09:46:27.569Z,13.73
2023-02-17T09:48:59.309Z,13.69
2023-02-17T09:51:42.793Z,13.35
2023-02-17T09:54:28.106Z,13.24
2023-02-17T09:56:57.106Z,13.31
2023-02-17T09:59:55.921Z,13.19
2023-02-17T10:02:45.226Z,13.35
2023-02-17T10:05:16.378Z,13.55
2023-02-17T10:07:51.952Z,13.42
2023-02-17T10:10:23.900Z,13.35
2023-02-17T10:12:56.327Z,13.41
2023-02-17T10:15:30.750Z,12.94
2023-02-17T10:18:05.799Z,13.29
2023-02-17T10:20:41.035Z,12.95
2023-02-17T10:23:13.821Z,13.50
2023-02-17T10:26:11.031Z,13.68
2023-02-17T10:29:08.362Z,13.30
2023-02-17T10:31:46.394Z,13.48
2023-02-17T10:34:37.192Z,12.82
2023-02-17T10:37:22.075Z,13.28
2023-02-17T10:39:58.622Z,13.74
2023-02-17T10:42:30.717Z,13.67
2023-02-17T10:45:08.279Z,13.68
2023-02-17T10:47:40.076Z,13.23
2023-02-17T10:50:20.319Z,13.73
2023-02-17T10:52:48.341Z,13.69
2023-02-17T10:55:41.157Z,13.72
2023-02-17T10:58:24.108Z,13.59
2023-02-17T11:00:56.422Z,13.34
2023-02-17T11:03:28.910Z,13.84
2023-02-17T11:05:59.037Z,13.92
2023-02-17T11:08:31.000Z,13.44
2023-02-17T11:11:05.084Z,13.87
2023-02-17T11:14:05.317Z,13.65
2023-02-17T11:16:42.457Z,13.58
2023-02-17T11:19:23.785Z,13.94
2023-02-17T11:21:52.660Z,13.54
2023-02-17T11:24:19.641Z,13.53
2023-02-17T11:30:59.655Z,13.42
2023-02-17T11:36:50.131Z,14.03
2023-02-17T11:43:21.636Z,13.76
2023-02-17T11:46:12.035Z,13.81
2023-02-17T11:49:09.743Z,13.30
2023-02-17T11:52:07.962Z,13.59
2023-02-17T11:54:54.747Z,13.75
2023-02-17T11:57:55.992Z,13.67
2023-02-17T12:00:32.824Z,13.85
2023-02-17T12:03:15.528Z,12.92
2023-02-17T12:05:58.602Z,13.76
2023-02-17T12:08:33.097Z,13.41
2023-02-17T12:11:10.937Z,13.72
2023-02-17T12:14:15.209Z,13.57
2023-02-17T12:16:50.874Z,13.93
2023-02-17T12:20:03.867Z,13.83
2023-02-17T12:22:54.012Z,13.81
2023-02-17T12:26:02.333Z,13.98
2023-02-17T12:29:04.213Z,14.17
2023-02-17T12:32:00.392Z,13.61
2023-02-17T12:34:40.466Z,14.26
2023-02-17T12:37:27.076Z,14.00
2023-02-17T12:40:05.455Z,13.84
2023-02-17T12:42:38.752Z,14.16
2023-02-17T12:45:09.085Z,14.40
2023-02-17T12:47:48.488Z,14.32
2023-02-17T12:50:35.896Z,14.03
2023-02-17T12:53:10.794Z,13.99
2023-02-17T12:55:48.475Z,14.15
2023-02-17T12:58:26.293Z,14.14
2023-02-17T13:00:58.587Z,14.16
2023-02-17T13:03:30.180Z,14.29
2023-02-17T13:06:17.381Z,14.22
2023-02-17T13:08:58.701Z,14.06
2023-02-17T13:11:34.353Z,14.61
2023-02-17T13:14:42.771Z,14.19
2023-02-17T13:17:37.636Z,14.23
2023-02-17T13:20:10.835Z,14.21
2023-02-17T13:22:48.721Z,14.01
2023-02-17T13:25:32.534Z,14.30
2023-02-17T13:28:15.677Z,14.04
2023-02-17T13:30:49.421Z,14.17
2023-02-17T13:33:30.299Z,13.48
2023-02-17T13:36:09.814Z,13.82
2023-02-17T13:39:02.300Z,14.02
2023-02-17T13:41:51.763Z,14.03
2023-02-17T13:44:47.577Z,13.98
2023-02-17T13:47:48.903Z,14.33
2023-02-17T13:50:41.813Z,14.21
2023-02-17T13:53:58.713Z,14.18
2023-02-17T13:56:52.185Z,14.31
2023-02-17T13:59:40.129Z,14.53
2023-02-17T14:02:35.842Z,14.17
2023-02-17T14:05:40.823Z,14.58
2023-02-17T14:08:49.116Z,14.52
2023-02-17T14:11:28.090Z,14.43
2023-02-17T14:14:08.006Z,14.23
2023-02-17T14:17:03.004Z,14.14
2023-02-17T14:20:10.003Z,14.25
2023-02-17T14:23:03.720Z,14.36
2023-02-17T14:25:46.580Z,14.18
2023-02-17T14:28:38.971Z,13.93
2023-02-17T14:31:29.639Z,14.32
2023-02-17T14:34:11.606Z,13.98
2023-02-17T14:37:11.679Z,14.28
2023-02-17T14:42:57.412Z,14.14
2023-02-17T14:45:59.756Z,14.13
2023-02-17T14:52:35.414Z,13.59
2023-02-17T14:56:08.029Z,13.79
2023-02-17T14:58:55.557Z,13.35
2023-02-17T15:02:40.354Z,13.52
2023-02-17T15:05:38.764Z,13.45
2023-02-17T15:08:22.772Z,13.97
2023-02-17T15:10:57.117Z,13.78
2023-02-17T15:14:12.404Z,13.55
2023-02-17T15:16:40.016Z,13.27
2023-02-17T15:19:46.523Z,13.32
2023-02-17T15:22:33.607Z,13.21
2023-02-17T15:25:32.693Z,13.56
2023-02-17T15:28:17.631Z,13.29
2023-02-17T15:30:52.688Z,13.67
2023-02-17T15:33:57.547Z,13.76
2023-02-17T15:36:40.271Z,13.54
2023-02-17T15:39:27.161Z,12.93
2023-02-17T15:42:07.454Z,13.12
2023-02-17T15:45:05.194Z,13.34
2023-02-17T15:48:16.234Z,13.14
2023-02-17T15:51:04.829Z,12.88
2023-02-17T15:53:45.709Z,12.31
2023-02-17T15:56:48.563Z,12.80
2023-02-17T15:59:57.755Z,12.85
2023-02-17T16:02:36.382Z,12.55
2023-02-17T16:05:25.000Z,13.22
2023-02-17T16:08:04.880Z,13.27
2023-02-17T16:10:45.806Z,12.36
2023-02-17T16:13:35.055Z,12.42
2023-02-17T16:16:31.890Z,12.83
2023-02-17T16:21:59.366Z,12.44
2023-02-17T16:24:36.294Z,12.75
2023-02-17T16:27:19.130Z,12.52
2023-02-17T16:33:07.556Z,12.31
2023-02-17T16:35:49.986Z,12.57
2023-02-17T16:38:40.045Z,12.31
2023-02-17T16:41:37.482Z,12.27
2023-02-17T16:44:42.025Z,12.68
2023-02-17T16:48:12.056Z,12.57
2023-02-17T16:55:04.954Z,12.45
2023-02-17T17:01:36.142Z,12.27
2023-02-17T17:04:50.609Z,12.23
2023-02-17T17:07:42.179Z,12.35
2023-02-17T17:10:22.152Z,12.32
2023-02-17T17:13:14.917Z,12.24
2023-02-17T17:16:00.084Z,11.68
2023-02-17T17:25:03.885Z,11.94
2023-02-17T17:32:00.650Z,11.51
2023-02-17T17:41:39.252Z,11.91
2023-02-17T17:44:47.925Z,11.72
2023-02-17T17:48:10.195Z,11.71
2023-02-17T17:51:12.289Z,12.00
2023-02-17T17:54:03.601Z,12.14
2023-02-17T17:57:29.718Z,11.74
2023-02-17T18:00:05.600Z,11.97
2023-02-17T18:03:09.440Z,12.02
2023-02-17T18:06:19.952Z,11.86
2023-02-17T18:09:31.135Z,12.09
2023-02-17T18:12:37.115Z,11.68
2023-02-17T18:18:39.312Z,11.83
2023-02-17T18:24:35.652Z,11.39
2023-02-17T18:27:02.502Z,11.44
2023-02-17T18:29:29.565Z,11.27
2023-02-17T18:31:57.702Z,11.18
2023-02-17T18:34:25.032Z,11.66
2023-02-17T18:36:52.007Z,11.61
2023-02-17T18:39:18.722Z,11.83
2023-02-17T18:41:45.379Z,11.96
2023-02-17T18:44:13.661Z,12.10
2023-02-17T18:46:41.017Z,11.61
2023-02-17T18:49:08.087Z,11.70
2023-02-17T18:51:34.891Z,11.69
2023-02-17T18:54:02.549Z,11.75
2023-02-17T18:56:33.035Z,12.00
2023-02-17T18:59:00.468Z,11.79
2023-02-17T19:01:41.432Z,11.83
2023-02-17T19:04:09.703Z,11.58
2023-02-17T19:06:36.395Z,11.28
2023-02-17T19:09:04.511Z,11.79
2023-02-17T19:11:32.591Z,11.69
2023-02-17T19:14:01.054Z,11.45
2023-02-17T19:16:30.217Z,11.24
2023-02-17T19:18:57.854Z,11.40
2023-02-17T19:21:25.237Z,11.59
2023-02-17T19:23:52.058Z,11.59
2023-02-17T19:26:19.774Z,11.17
2023-02-17T19:28:47.149Z,11.61
2023-02-17T19:31:16.811Z,11.80
2023-02-17T19:33:44.770Z,11.92
2023-02-17T19:36:17.236Z,12.06
2023-02-17T19:38:45.089Z,11.67
2023-02-17T19:41:13.290Z,11.67
2023-02-17T19:43:41.490Z,11.58
2023-02-17T19:46:24.443Z,11.71
2023-02-17T19:48:51.518Z,11.29
2023-02-17T19:51:18.155Z,11.85
2023-02-17T19:53:44.894Z,11.53
2023-02-17T19:56:18.518Z,11.45
2023-02-17T19:58:46.283Z,11.50
2023-02-17T20:01:15.950Z,11.28
2023-02-17T20:03:42.824Z,11.45
2023-02-17T20:06:12.488Z,11.77
2023-02-17T20:08:39.802Z,11.33
2023-02-17T20:11:08.488Z,11.61
2023-02-17T20:13:45.149Z,11.47
2023-02-17T20:16:15.306Z,11.54
2023-02-17T20:18:44.852Z,11.25
2023-02-17T20:21:18.109Z,11.53
2023-02-17T20:23:45.085Z,11.47
2023-02-17T20:26:19.777Z,11.46
2023-02-17T20:28:46.625Z,11.42
2023-02-17T20:31:14.482Z,11.57
2023-02-17T20:33:41.281Z,11.55
2023-02-17T20:36:09.572Z,11.39
2023-02-17T20:38:37.619Z,11.81
2023-02-17T20:41:06.674Z,11.25
2023-02-17T20:43:34.039Z,11.59
2023-02-17T20:46:00.892Z,11.62
2023-02-17T20:48:27.792Z,11.66
2023-02-17T20:50:55.616Z,11.63
2023-02-17T20:53:23.487Z,11.54
2023-02-17T20:55:50.975Z,11.61
2023-02-17T20:58:17.944Z,11.41
2023-02-17T21:00:44.751Z,11.37
2023-02-17T21:03:11.478Z,11.49
2023-02-17T21:05:38.297Z,11.51
2023-02-17T21:08:05.194Z,11.15
2023-02-17T21:10:32.768Z,11.55
2023-02-17T21:12:59.613Z,11.05
2023-02-17T21:15:27.272Z,11.77
2023-02-17T21:17:54.350Z,11.27
2023-02-17T21:20:22.253Z,11.43
2023-02-17T21:22:50.382Z,11.51
2023-02-17T21:25:17.242Z,11.41
2023-02-17T21:27:43.929Z,11.42
2023-02-17T21:30:11.506Z,11.43
2023-02-17T21:32:38.386Z,11.20
2023-02-17T21:35:05.401Z,11.70
2023-02-17T21:37:32.254Z,11.01
2023-02-17T21:39:59.191Z,11.45
2023-02-17T21:42:46.018Z,11.64
2023-02-17T21:45:12.646Z,11.57
2023-02-17T21:47:39.332Z,11.67
2023-02-17T21:50:07.008Z,11.18
2023-02-17T21:52:33.642Z,11.10
2023-02-17T21:55:01.063Z,11.11
2023-02-17T21:57:27.797Z,11.11
2023-02-17T21:59:54.575Z,11.52
2023-02-17T22:02:21.215Z,11.53
2023-02-17T22:04:47.898Z,11.34
2023-02-17T22:07:14.558Z,11.20
2023-02-17T22:09:41.252Z,11.03
2023-02-17T22:12:08.328Z,10.86
2023-02-17T22:14:35.018Z,10.78
2023-02-17T22:17:01.741Z,11.25
2023-02-17T22:19:31.270Z,10.82
2023-02-17T22:21:58.331Z,10.97
2023-02-17T22:24:27.152Z,11.09
2023-02-17T22:26:54.553Z,11.25
2023-02-17T22:29:21.368Z,11.37
2023-02-17T22:31:50.409Z,11.21
2023-02-17T22:34:17.281Z,11.00
2023-02-17T22:36:44.067Z,11.27
2023-02-17T22:39:11.110Z,11.08
2023-02-17T22:41:39.327Z,11.41
2023-02-17T22:44:06.014Z,11.04
2023-02-17T22:46:32.819Z,11.26
2023-02-17T22:49:00.029Z,11.25
2023-02-17T22:51:29.622Z,10.68
2023-02-17T22:53:57.200Z,10.95
2023-02-17T22:56:24.397Z,11.11
2023-02-17T22:58:58.009Z,11.19
2023-02-17T23:01:25.147Z,11.43
2023-02-17T23:03:54.517Z,10.82
2023-02-17T23:06:28.250Z,10.97
2023-02-17T23:08:55.508Z,11.21
2023-02-17T23:12:01.203Z,10.19
2023-02-17T23:14:36.222Z,10.96
2023-02-17T23:17:11.059Z,10.87
2023-02-17T23:19:39.443Z,10.91
2023-02-17T23:22:15.970Z,11.38
2023-02-17T23:24:47.479Z,11.31
2023-02-17T23:27:19.659Z,10.67
2023-02-17T23:29:53.938Z,10.64
2023-02-17T23:32:29.005Z,10.76
2023-02-17T23:35:11.720Z,10.61
2023-02-17T23:37:59.375Z,10.92
2023-02-17T23:40:36.053Z,10.74
2023-02-17T23:43:11.919Z,11.10
2023-02-17T23:45:53.190Z,11.23
2023-02-17T23:48:39.184Z,11.20
2023-02-17T23:51:15.065Z,10.97
2023-02-17T23:53:51.092Z,11.11
2023-02-17T23:56:32.680Z,10.60
2023-02-17T23:59:14.648Z,10.46
